Time;durP1;ratioP1;P1;durP2;ratioP2;P2;SDS_P1;SDS_P2;PMS_P1;PMS_P2;Temp;Humidity;BMP_temperature;BMP_pressure;BME280_temperature;BME280_humidity;BME280_pressure;Samples;Min_cycle;Max_cycle;Signal;HPM_P1;HPM_P2
2020/12/12 10:08:33;;;;;;;50.27;28.47;;;;;;;3.68;95.88;97217.94;5188867;27;21096;-79
2020/12/12 10:11:00;;;;;;;44.23;27.20;;;;;;;4.19;97.10;97220.88;5271661;22;40541;-80
2020/12/12 10:13:27;;;;;;;42.70;28.47;;;;;;;4.66;96.10;97218.69;5120676;27;41532;-80
2020/12/12 10:15:54;;;;;;;42.63;26.40;;;;;;;5.04;93.99;97217.94;5103582;28;43216;-80
2020/12/12 10:18:22;;;;;;;40.27;26.10;;;;;;;5.36;91.26;97211.38;5103173;28;42488;-80
2020/12/12 10:20:51;;;;;;;39.97;26.17;;;;;;;5.61;89.41;97214.94;5096623;27;41260;-80
2020/12/12 10:23:19;;;;;;;38.20;26.10;;;;;;;5.77;87.65;97226.91;5213555;22;41752;-79
2020/12/12 10:25:47;;;;;;;36.73;24.93;;;;;;;5.90;86.57;97229.56;5084330;27;45112;-80
2020/12/12 10:28:14;;;;;;;37.17;25.27;;;;;;;5.97;85.58;97224.72;5079085;28;42086;-80
2020/12/12 10:30:41;;;;;;;35.30;23.90;;;;;;;6.07;85.17;97221.31;5067159;28;40681;-79
2020/12/12 10:33:11;;;;;;;39.13;25.40;;;;;;;6.27;84.59;97229.59;5086230;28;43097;-80
2020/12/12 10:35:38;;;;;;;39.50;25.77;;;;;;;6.41;83.64;97224.22;5205935;22;45049;-78
2020/12/12 10:38:06;;;;;;;37.47;25.90;;;;;;;6.55;82.78;97221.44;5112980;27;42008;-78
2020/12/12 10:40:34;;;;;;;36.57;26.33;;;;;;;6.69;81.90;97223.88;5105937;27;40937;-78
2020/12/12 10:43:04;;;;;;;38.13;26.40;;;;;;;6.78;79.83;97232.91;5090996;27;42994;-78
2020/12/12 10:45:32;;;;;;;35.43;24.97;;;;;;;6.88;79.82;97231.28;5115252;27;43734;-78
2020/12/12 10:47:59;;;;;;;37.50;25.93;;;;;;;6.94;79.32;97227.34;5214643;22;41588;-78
2020/12/12 10:50:26;;;;;;;34.63;26.43;;;;;;;7.00;79.20;97226.91;5107068;27;39958;-79
2020/12/12 10:52:53;;;;;;;34.30;25.47;;;;;;;7.09;77.51;97236.72;5106292;27;42397;-79
2020/12/12 10:55:21;;;;;;;36.23;25.57;;;;;;;7.15;77.53;97231.03;5107753;27;42983;-79
2020/12/12 10:57:48;;;;;;;34.47;23.63;;;;;;;7.21;77.12;97233.19;5177731;22;42869;-79
2020/12/12 11:00:23;;;;;;;34.93;25.53;;;;;;;7.28;76.63;97237.06;5089648;27;41505;-79
2020/12/12 11:02:51;;;;;;;33.03;24.00;;;;;;;7.33;76.16;97239.31;5089957;27;42140;-79
2020/12/12 11:05:18;;;;;;;32.63;23.70;;;;;;;7.39;76.34;97233.63;5106247;27;44675;-79
2020/12/12 11:07:45;;;;;;;36.43;26.57;;;;;;;7.36;75.58;97229.41;5106520;27;42232;-78
2020/12/12 11:10:12;;;;;;;31.80;23.73;;;;;;;7.49;75.55;97240.69;5205719;22;39582;-78
2020/12/12 11:12:44;;;;;;;32.60;24.07;;;;;;;7.49;75.44;97230.16;5127038;27;42432;-78
2020/12/12 11:15:13;;;;;;;34.10;23.90;;;;;;;7.62;75.14;97239.75;5109964;27;45055;-78
2020/12/12 11:17:40;;;;;;;31.20;24.17;;;;;;;7.64;74.82;97232.59;5125931;27;42375;-78
2020/12/12 11:20:08;;;;;;;32.43;24.50;;;;;;;7.71;75.41;97228.50;5113001;27;40491;-78
2020/12/12 11:22:35;;;;;;;31.10;24.27;;;;;;;7.90;74.58;97236.69;5198450;22;41625;-78
2020/12/12 11:25:03;;;;;;;32.77;24.30;;;;;;;8.01;74.59;97239.31;5107339;28;43565;-79
2020/12/12 11:27:30;;;;;;;31.27;22.50;;;;;;;8.06;74.56;97228.41;5092623;28;41843;-78
2020/12/12 11:29:58;;;;;;;33.20;24.60;;;;;;;8.17;74.18;97231.03;5092719;28;40738;-78
2020/12/12 11:32:25;;;;;;;31.15;23.30;;;;;;;8.18;73.70;97216.91;5180337;22;42653;-78
2020/12/12 11:34:57;;;;;;;33.97;24.27;;;;;;;8.32;72.89;97234.28;5069754;28;42203;-78
2020/12/12 11:37:33;;;;;;;30.70;23.10;;;;;;;8.30;72.43;97232.59;5071490;28;42306;-78
2020/12/12 11:40:10;;;;;;;30.73;23.00;;;;;;;8.26;72.80;97231.16;5071751;28;40252;-78
2020/12/12 11:48:03;;;;;;;30.60;23.60;;;;;;;8.36;72.71;97246.28;5092944;28;41963;-78
2020/12/12 11:50:31;;;;;;;28.73;22.47;;;;;;;8.39;71.61;97246.06;5094723;28;40343;-79
2020/12/12 11:52:58;;;;;;;30.70;23.20;;;;;;;8.44;71.60;97246.50;5093599;28;41373;-79
2020/12/12 11:55:26;;;;;;;32.03;24.23;;;;;;;8.35;70.49;97234.91;5092033;28;42518;-79
2020/12/12 11:57:53;;;;;;;32.20;24.67;;;;;;;8.40;70.29;97253.00;5157771;22;41984;-79
2020/12/12 12:00:21;;;;;;;30.77;21.70;;;;;;;8.33;71.08;97243.88;5072183;28;39691;-79
2020/12/12 12:02:50;;;;;;;31.30;23.23;;;;;;;8.41;69.76;97270.50;5056161;28;41103;-79
2020/12/12 12:05:17;;;;;;;28.40;22.13;;;;;;;8.39;70.21;97256.59;5076421;28;43667;-79
2020/12/12 12:07:47;;;;;;;31.03;23.57;;;;;;;8.26;70.75;97241.72;5180856;22;42512;-80
2020/12/12 12:10:26;;;;;;;29.03;22.77;;;;;;;8.15;70.45;97228.53;5133658;27;40778;-79
2020/12/12 12:12:53;;;;;;;29.03;22.03;;;;;;;8.32;69.62;97272.06;5135143;27;41555;-79
2020/12/12 12:15:21;;;;;;;28.43;22.67;;;;;;;8.27;70.26;97269.78;5127498;27;44096;-79
2020/12/12 12:17:48;;;;;;;29.97;22.77;;;;;;;8.30;70.56;97269.50;5116861;27;43507;-79
2020/12/12 12:20:15;;;;;;;30.03;23.47;;;;;;;8.35;70.32;97271.81;5190426;22;40801;-79
2020/12/12 12:22:42;;;;;;;30.13;23.30;;;;;;;8.34;69.85;97275.41;5106683;27;42124;-80
2020/12/12 12:25:10;;;;;;;27.93;22.50;;;;;;;8.30;69.78;97269.50;5126881;27;42888;-80
2020/12/12 12:27:39;;;;;;;34.03;26.37;;;;;;;8.34;69.72;97287.78;5103210;27;43324;-79
2020/12/12 12:30:06;;;;;;;35.57;26.27;;;;;;;8.31;69.58;97283.53;5128258;27;40387;-80
2020/12/12 12:32:33;;;;;;;32.10;23.40;;;;;;;8.27;70.04;97285.59;5182183;22;43030;-80
2020/12/12 12:35:00;;;;;;;30.13;23.47;;;;;;;8.36;70.16;97291.97;5111384;27;44687;-80
2020/12/12 12:37:28;;;;;;;28.87;21.97;;;;;;;8.36;69.76;97299.03;5129480;27;42934;-80
2020/12/12 12:39:54;;;;;;;27.93;21.40;;;;;;;8.22;68.94;97277.19;5108999;27;40039;-80
2020/12/12 12:42:23;;;;;;;27.13;22.27;;;;;;;8.35;69.10;97286.81;5224538;22;42824;-82
2020/12/12 12:44:50;;;;;;;29.37;22.30;;;;;;;8.33;68.80;97288.72;5114367;27;41673;-79
2020/12/12 12:47:19;;;;;;;28.37;21.73;;;;;;;8.45;69.33;97300.94;5095209;27;43167;-79
2020/12/12 12:49:46;;;;;;;26.13;20.67;;;;;;;8.42;68.63;97301.19;5121430;27;42104;-79
2020/12/12 12:52:14;;;;;;;25.63;20.60;;;;;;;8.40;69.05;97300.50;5106690;27;42230;-80
2020/12/12 12:54:41;;;;;;;27.17;21.43;;;;;;;8.36;69.28;97299.88;5198595;22;44303;-81
2020/12/12 12:57:08;;;;;;;26.87;21.27;;;;;;;8.38;69.19;97297.13;5111794;27;42147;-80
2020/12/12 12:59:36;;;;;;;30.17;21.80;;;;;;;8.35;68.66;97305.28;5094676;28;39965;-81
2020/12/12 13:02:03;;;;;;;26.50;20.67;;;;;;;8.26;69.41;97288.34;5095091;27;42408;-80
2020/12/12 13:04:30;;;;;;;26.87;20.87;;;;;;;8.41;69.39;97300.34;5087858;28;42757;-80
2020/12/12 13:06:57;;;;;;;30.23;23.67;;;;;;;8.47;69.09;97306.94;5190933;22;42930;-79
2020/12/12 13:09:25;;;;;;;26.50;21.03;;;;;;;8.61;69.29;97304.06;5145890;27;40359;-79
2020/12/12 13:11:52;;;;;;;25.47;20.17;;;;;;;8.73;68.98;97305.72;5137044;27;43134;-78
2020/12/12 13:14:19;;;;;;;27.20;21.27;;;;;;;8.80;69.20;97309.53;5147745;27;43456;-78
2020/12/12 13:16:51;;;;;;;29.43;22.87;;;;;;;8.82;68.75;97322.63;5135876;27;42042;-79
2020/12/12 13:19:21;;;;;;;26.40;20.93;;;;;;;8.80;69.06;97317.47;5238839;22;40986;-78
2020/12/12 13:21:52;;;;;;;30.73;24.27;;;;;;;8.72;68.83;97317.25;5171833;27;41907;-79
2020/12/12 13:24:19;;;;;;;29.43;23.73;;;;;;;8.71;69.25;97309.44;5157497;27;43032;-78
2020/12/12 13:26:46;;;;;;;27.63;21.60;;;;;;;8.71;69.23;97294.44;5157027;27;42190;-79
2020/12/12 13:31:59;;;;;;;28.73;22.37;;;;;;;8.89;68.11;97311.47;5113337;27;40729;-79
2020/12/12 13:34:26;;;;;;;28.70;21.63;;;;;;;9.11;67.88;97320.28;5121036;27;43998;-80
2020/12/12 13:36:54;;;;;;;27.57;21.33;;;;;;;9.26;67.65;97326.97;5113533;27;42910;-79
2020/12/12 13:39:21;;;;;;;26.17;21.30;;;;;;;9.39;67.15;97321.53;5119622;27;41291;-81
2020/12/12 13:41:49;;;;;;;25.33;20.77;;;;;;;9.46;67.05;97318.25;5189810;22;43117;-80
2020/12/12 13:44:16;;;;;;;27.70;21.67;;;;;;;9.46;66.39;97310.31;5105913;28;43460;-81
2020/12/12 13:46:43;;;;;;;27.10;21.33;;;;;;;9.61;65.78;97338.13;5089479;28;42540;-80
2020/12/12 13:49:11;;;;;;;28.60;22.33;;;;;;;9.58;65.73;97337.53;5107581;28;40231;-80
2020/12/12 13:51:38;;;;;;;27.00;20.53;;;;;;;9.56;65.92;97339.44;5089363;28;43053;-81
2020/12/12 13:54:05;;;;;;;25.40;21.47;;;;;;;9.33;65.74;97323.69;5213486;22;43783;-81
2020/12/12 13:56:32;;;;;;;44.70;32.50;;;;;;;9.40;66.31;97347.78;5104854;27;41967;-81
2020/12/12 13:58:59;;;;;;;33.13;24.77;;;;;;;9.34;66.03;97345.66;5096686;27;41131;-80
2020/12/12 14:01:26;;;;;;;31.10;22.77;;;;;;;9.24;66.55;97336.81;5106131;27;41580;-80
2020/12/12 14:03:53;;;;;;;27.25;21.80;;;;;;;9.20;66.38;97359.16;5208702;22;42794;-83
2020/12/12 14:06:22;;;;;;;28.40;21.63;;;;;;;9.07;66.40;97361.09;5105757;27;42070;-80
2020/12/12 14:09:07;;;;;;;27.63;21.80;;;;;;;8.95;67.09;97355.84;5076350;27;41828;-79
2020/12/12 14:18:34;;;;;;;26.37;21.13;;;;;;;8.90;67.27;97363.28;5096262;27;41509;-80
2020/12/12 14:22:58;;;;;;;26.43;22.20;;;;;;;8.54;67.90;97372.28;5105648;28;42769;-79
2020/12/12 14:25:25;;;;;;;25.73;19.67;;;;;;;8.36;68.27;97373.72;5107533;27;42811;-80
2020/12/12 14:30:40;;;;;;;27.40;21.10;;;;;;;8.35;68.74;97397.59;5086913;28;41996;-78
2020/12/12 14:33:08;;;;;;;26.20;20.57;;;;;;;8.32;68.86;97400.44;5105173;28;43384;-79
2020/12/12 14:35:36;;;;;;;28.47;21.23;;;;;;;8.25;68.83;97400.91;5085782;28;43391;-80
2020/12/12 14:38:04;;;;;;;28.60;21.77;;;;;;;8.19;69.06;97398.72;5083617;28;43677;-81
2020/12/12 14:40:31;;;;;;;27.77;20.83;;;;;;;8.13;69.25;97404.47;5203054;22;40881;-78
2020/12/12 14:42:58;;;;;;;25.23;19.50;;;;;;;8.01;69.67;97394.84;5122349;27;42362;-80
2020/12/12 14:45:26;;;;;;;26.37;20.50;;;;;;;8.05;69.36;97417.38;5110452;27;43700;-79
2020/12/12 14:47:53;;;;;;;27.20;21.53;;;;;;;8.00;69.73;97414.25;5129127;27;42183;-79
2020/12/12 14:50:28;;;;;;;29.70;21.60;;;;;;;7.94;70.11;97419.97;5157646;22;42474;31
2020/12/12 14:52:55;;;;;;;26.67;21.57;;;;;;;7.87;70.10;97429.31;5025937;28;41423;-78
2020/12/12 14:55:24;;;;;;;27.13;20.03;;;;;;;7.79;70.65;97421.94;5030229;28;42773;-79
2020/12/12 14:57:53;;;;;;;25.87;20.70;;;;;;;7.70;70.59;97421.78;5002491;28;43160;-79
2020/12/12 15:00:20;;;;;;;29.10;23.57;;;;;;;7.53;70.80;97408.09;5016620;28;40671;-79
2020/12/12 15:02:48;;;;;;;26.93;21.13;;;;;;;7.55;71.05;97421.97;5141189;22;41704;-79
2020/12/12 15:05:15;;;;;;;26.13;20.23;;;;;;;7.63;71.47;97446.94;5091861;28;42780;-79
2020/12/12 15:07:43;;;;;;;25.53;19.93;;;;;;;7.62;71.40;97447.88;5111302;27;43099;-79
2020/12/12 15:10:11;;;;;;;31.57;21.20;;;;;;;7.56;71.46;97450.00;5106018;28;40102;-80
2020/12/12 15:12:42;;;;;;;28.27;21.60;;;;;;;7.48;71.79;97441.81;5094397;28;42224;-79
2020/12/12 15:15:11;;;;;;;28.90;21.63;;;;;;;7.48;72.05;97454.97;5198321;22;42954;-79
2020/12/12 15:17:38;;;;;;;26.03;20.87;;;;;;;7.47;72.17;97463.84;5119697;27;42281;-79
2020/12/12 15:20:06;;;;;;;31.17;23.13;;;;;;;7.41;72.53;97466.09;5083418;28;40351;-79
2020/12/12 15:22:33;;;;;;;30.83;22.33;;;;;;;7.20;72.39;97444.75;5092428;28;42269;-80
2020/12/12 15:25:00;;;;;;;29.17;21.80;;;;;;;7.21;72.45;97451.69;5089582;27;43320;-79
2020/12/12 15:27:27;;;;;;;30.03;23.10;;;;;;;7.28;72.60;97466.13;5180416;22;43745;-79
2020/12/12 15:29:55;;;;;;;30.07;22.47;;;;;;;7.18;73.23;97457.16;5055894;28;40616;-80
2020/12/12 15:32:28;;;;;;;28.13;22.00;;;;;;;7.00;73.20;97437.44;5089084;28;42570;-80
2020/12/12 15:34:55;;;;;;;29.67;22.83;;;;;;;6.86;73.63;97430.50;5075183;28;43668;-79
2020/12/12 15:37:22;;;;;;;27.30;20.73;;;;;;;7.09;74.07;97476.25;5181883;22;41916;-79
2020/12/12 15:39:49;;;;;;;29.47;22.77;;;;;;;7.05;74.21;97477.41;5113633;27;39935;-79
2020/12/12 15:42:17;;;;;;;29.20;21.30;;;;;;;7.04;74.25;97481.03;5130199;27;41521;-79
2020/12/12 15:44:44;;;;;;;31.80;22.60;;;;;;;6.93;74.32;97473.00;5110164;27;43996;-80
2020/12/12 15:47:14;;;;;;;31.30;22.03;;;;;;;6.86;74.43;97464.72;5076146;28;43341;-79
2020/12/12 15:49:41;;;;;;;29.00;21.63;;;;;;;7.00;74.29;97490.06;5152557;22;42282;-79
2020/12/12 15:52:10;;;;;;;30.40;22.57;;;;;;;6.99;74.17;97488.38;5063806;28;42203;-79
2020/12/12 15:54:37;;;;;;;29.57;21.67;;;;;;;6.92;74.25;97487.13;5072234;28;43089;-79
2020/12/12 15:57:04;;;;;;;33.27;23.13;;;;;;;6.96;74.61;97493.84;5071502;28;42034;-80
2020/12/12 15:59:32;;;;;;;29.13;22.20;;;;;;;6.92;74.65;97492.41;5056218;28;40608;-79
2020/12/12 16:01:59;;;;;;;27.07;21.70;;;;;;;6.81;74.81;97480.81;5186714;22;42439;-80
2020/12/12 16:04:30;;;;;;;28.27;20.30;;;;;;;6.93;74.53;97505.44;5129974;27;42967;-80
2020/12/12 16:06:59;;;;;;;25.70;20.00;;;;;;;6.94;74.41;97511.53;5124818;27;42445;-80
2020/12/12 16:09:56;;;;;;;27.27;20.93;;;;;;;6.98;74.45;97518.28;5130493;27;41488;-80
2020/12/12 16:12:26;;;;;;;25.93;18.67;;;;;;;6.97;74.33;97522.69;5193609;22;44225;-79
2020/12/12 16:14:54;;;;;;;30.27;21.17;;;;;;;6.96;74.51;97520.16;5109678;28;42921;-79
2020/12/12 16:17:21;;;;;;;28.37;22.37;;;;;;;6.73;74.45;97493.66;5091202;28;42368;-80
2020/12/12 16:19:50;;;;;;;28.83;22.10;;;;;;;6.78;74.63;97507.34;5091351;28;40042;-79
2020/12/12 16:22:16;;;;;;;27.90;21.17;;;;;;;6.83;74.97;97526.28;5090764;28;41356;-79
2020/12/12 16:24:44;;;;;;;26.83;20.73;;;;;;;6.79;75.11;97522.19;5184746;22;43580;-80
2020/12/12 16:27:11;;;;;;;29.70;22.43;;;;;;;6.78;74.98;97531.03;5111882;27;44131;-80
2020/12/12 16:29:38;;;;;;;31.07;23.87;;;;;;;6.75;75.49;97533.03;5112391;27;40548;-79
2020/12/12 16:32:05;;;;;;;29.20;21.83;;;;;;;6.72;75.52;97533.22;5095444;27;42569;-80
2020/12/12 16:34:32;;;;;;;29.37;22.43;;;;;;;6.73;75.48;97546.28;5128830;27;43959;-79
2020/12/12 16:37:00;;;;;;;29.10;22.13;;;;;;;6.71;75.65;97537.63;5199946;22;42217;-80
2020/12/12 16:39:27;;;;;;;32.77;24.70;;;;;;;6.65;76.40;97545.97;5111743;27;40307;-80
2020/12/12 16:41:55;;;;;;;30.80;23.17;;;;;;;6.63;76.76;97547.84;5094767;27;42162;-79
2020/12/12 16:44:23;;;;;;;35.73;26.50;;;;;;;6.52;76.66;97542.47;5139841;27;43580;-80
2020/12/12 16:49:26;;;;;;;32.73;24.07;;;;;;;6.42;76.78;97526.47;5049416;28;39634;-81
